sensor_id;sensor_type;location;lat;lon;timestamp;P1;durP1;ratioP1;P2;durP2;ratioP2
54641;SDS011;40536;53.194;5.728;2022-10-31T00:01:12;35.25;;;31.90;;
54641;SDS011;40536;53.194;5.728;2022-10-31T00:03:40;36.38;;;33.45;;
54641;SDS011;40536;53.194;5.728;2022-10-31T00:06:06;36.10;;;32.90;;
54641;SDS011;40536;53.194;5.728;2022-10-31T00:08:31;47.22;;;43.47;;
54641;SDS011;40536;53.194;5.728;2022-10-31T00:10:57;37.97;;;34.95;;
54641;SDS011;40536;53.194;5.728;2022-10-31T00:13:23;70.80;;;65.68;;
54641;SDS011;40536;53.194;5.728;2022-10-31T00:15:49;61.17;;;56.58;;
54641;SDS011;40536;53.194;5.728;2022-10-31T00:18:15;103.40;;;97.05;;
54641;SDS011;40536;53.194;5.728;2022-10-31T00:20:41;85.82;;;80.65;;
54641;SDS011;40536;53.194;5.728;2022-10-31T00:23:06;108.35;;;101.70;;
54641;SDS011;40536;53.194;5.728;2022-10-31T00:25:33;66.18;;;61.47;;
54641;SDS011;40536;53.194;5.728;2022-10-31T00:28:01;45.67;;;41.75;;
54641;SDS011;40536;53.194;5.728;2022-10-31T00:30:27;44.88;;;41.13;;
54641;SDS011;40536;53.194;5.728;2022-10-31T00:32:53;40.08;;;37.00;;
54641;SDS011;40536;53.194;5.728;2022-10-31T00:35:18;33.78;;;30.77;;
54641;SDS011;40536;53.194;5.728;2022-10-31T00:37:44;47.78;;;43.83;;
54641;SDS011;40536;53.194;5.728;2022-10-31T00:40:09;44.90;;;41.47;;
54641;SDS011;40536;53.194;5.728;2022-10-31T00:42:35;51.30;;;47.53;;
54641;SDS011;40536;53.194;5.728;2022-10-31T00:45:01;46.88;;;43.30;;
54641;SDS011;40536;53.194;5.728;2022-10-31T00:47:27;38.67;;;35.58;;
54641;SDS011;40536;53.194;5.728;2022-10-31T00:49:52;35.13;;;31.70;;
54641;SDS011;40536;53.194;5.728;2022-10-31T00:52:18;37.17;;;34.00;;
54641;SDS011;40536;53.194;5.728;2022-10-31T00:54:44;40.05;;;36.75;;
54641;SDS011;40536;53.194;5.728;2022-10-31T00:57:09;44.55;;;41.05;;
54641;SDS011;40536;53.194;5.728;2022-10-31T00:59:35;84.75;;;79.38;;
54641;SDS011;40536;53.194;5.728;2022-10-31T01:02:00;83.03;;;77.85;;
54641;SDS011;40536;53.194;5.728;2022-10-31T01:04:26;140.43;;;133.13;;
54641;SDS011;40536;53.194;5.728;2022-10-31T01:06:52;159.27;;;151.10;;
54641;SDS011;40536;53.194;5.728;2022-10-31T01:09:17;129.30;;;122.22;;
54641;SDS011;40536;53.194;5.728;2022-10-31T01:11:43;177.50;;;168.25;;
54641;SDS011;40536;53.194;5.728;2022-10-31T01:14:09;144.80;;;136.85;;
54641;SDS011;40536;53.194;5.728;2022-10-31T01:16:35;200.63;;;190.75;;
54641;SDS011;40536;53.194;5.728;2022-10-31T01:19:00;260.88;;;248.05;;
54641;SDS011;40536;53.194;5.728;2022-10-31T01:21:27;230.32;;;218.57;;
54641;SDS011;40536;53.194;5.728;2022-10-31T01:23:54;165.32;;;156.50;;
54641;SDS011;40536;53.194;5.728;2022-10-31T01:26:21;192.32;;;182.63;;
54641;SDS011;40536;53.194;5.728;2022-10-31T01:28:55;201.23;;;191.25;;
54641;SDS011;40536;53.194;5.728;2022-10-31T01:31:24;230.43;;;218.48;;
54641;SDS011;40536;53.194;5.728;2022-10-31T01:33:52;122.38;;;115.75;;
54641;SDS011;40536;53.194;5.728;2022-10-31T01:38:48;50.25;;;46.13;;
54641;SDS011;40536;53.194;5.728;2022-10-31T01:41:16;41.95;;;38.70;;
54641;SDS011;40536;53.194;5.728;2022-10-31T01:43:56;49.17;;;45.45;;
54641;SDS011;40536;53.194;5.728;2022-10-31T01:46:32;51.83;;;48.13;;
54641;SDS011;40536;53.194;5.728;2022-10-31T01:49:01;127.13;;;119.70;;
54641;SDS011;40536;53.194;5.728;2022-10-31T01:51:31;102.35;;;96.18;;
54641;SDS011;40536;53.194;5.728;2022-10-31T01:54:03;105.53;;;99.43;;
54641;SDS011;40536;53.194;5.728;2022-10-31T01:56:31;143.73;;;135.77;;
54641;SDS011;40536;53.194;5.728;2022-10-31T01:58:59;166.15;;;156.77;;
54641;SDS011;40536;53.194;5.728;2022-10-31T02:01:27;134.63;;;126.80;;
54641;SDS011;40536;53.194;5.728;2022-10-31T02:03:53;152.10;;;143.45;;
54641;SDS011;40536;53.194;5.728;2022-10-31T02:06:28;57.80;;;53.65;;
54641;SDS011;40536;53.194;5.728;2022-10-31T02:09:05;158.00;;;148.40;;
54641;SDS011;40536;53.194;5.728;2022-10-31T02:11:31;174.20;;;164.73;;
54641;SDS011;40536;53.194;5.728;2022-10-31T02:13:59;220.55;;;208.77;;
54641;SDS011;40536;53.194;5.728;2022-10-31T02:16:26;198.32;;;187.70;;
54641;SDS011;40536;53.194;5.728;2022-10-31T02:18:52;172.85;;;163.05;;
54641;SDS011;40536;53.194;5.728;2022-10-31T02:27:39;139.35;;;130.65;;
54641;SDS011;40536;53.194;5.728;2022-10-31T02:30:30;82.85;;;77.55;;
54641;SDS011;40536;53.194;5.728;2022-10-31T02:35:53;74.80;;;69.35;;
54641;SDS011;40536;53.194;5.728;2022-10-31T02:38:34;108.63;;;101.22;;
54641;SDS011;40536;53.194;5.728;2022-10-31T02:41:11;94.07;;;88.00;;
54641;SDS011;40536;53.194;5.728;2022-10-31T02:49:15;62.85;;;57.92;;
54641;SDS011;40536;53.194;5.728;2022-10-31T02:51:51;55.65;;;51.13;;
54641;SDS011;40536;53.194;5.728;2022-10-31T02:54:18;78.18;;;72.20;;
54641;SDS011;40536;53.194;5.728;2022-10-31T02:56:46;86.05;;;80.28;;
54641;SDS011;40536;53.194;5.728;2022-10-31T02:59:13;88.70;;;82.50;;
54641;SDS011;40536;53.194;5.728;2022-10-31T03:01:58;113.18;;;105.93;;
54641;SDS011;40536;53.194;5.728;2022-10-31T03:10:18;93.30;;;87.22;;
54641;SDS011;40536;53.194;5.728;2022-10-31T03:12:55;72.22;;;67.05;;
54641;SDS011;40536;53.194;5.728;2022-10-31T03:15:44;83.82;;;78.28;;
54641;SDS011;40536;53.194;5.728;2022-10-31T03:18:37;117.82;;;110.45;;
54641;SDS011;40536;53.194;5.728;2022-10-31T03:21:14;132.93;;;125.05;;
54641;SDS011;40536;53.194;5.728;2022-10-31T03:23:45;172.10;;;162.38;;
54641;SDS011;40536;53.194;5.728;2022-10-31T03:26:13;144.85;;;136.25;;
54641;SDS011;40536;53.194;5.728;2022-10-31T03:28:51;124.80;;;117.28;;
54641;SDS011;40536;53.194;5.728;2022-10-31T03:31:25;148.52;;;139.93;;
54641;SDS011;40536;53.194;5.728;2022-10-31T03:33:55;106.82;;;99.93;;
54641;SDS011;40536;53.194;5.728;2022-10-31T03:36:24;163.52;;;154.32;;
54641;SDS011;40536;53.194;5.728;2022-10-31T03:38:52;153.82;;;144.82;;
54641;SDS011;40536;53.194;5.728;2022-10-31T03:41:20;141.13;;;132.77;;
54641;SDS011;40536;53.194;5.728;2022-10-31T03:43:52;176.52;;;166.77;;
54641;SDS011;40536;53.194;5.728;2022-10-31T03:46:22;201.52;;;190.60;;
54641;SDS011;40536;53.194;5.728;2022-10-31T03:48:48;184.57;;;174.10;;
54641;SDS011;40536;53.194;5.728;2022-10-31T03:56:34;230.60;;;218.77;;
54641;SDS011;40536;53.194;5.728;2022-10-31T03:59:19;209.43;;;197.90;;
54641;SDS011;40536;53.194;5.728;2022-10-31T04:01:55;113.80;;;107.03;;
54641;SDS011;40536;53.194;5.728;2022-10-31T04:04:24;194.50;;;184.13;;
54641;SDS011;40536;53.194;5.728;2022-10-31T04:06:51;343.75;;;324.13;;
54641;SDS011;40536;53.194;5.728;2022-10-31T04:09:18;416.85;;;390.40;;
54641;SDS011;40536;53.194;5.728;2022-10-31T04:11:47;209.00;;;197.57;;
54641;SDS011;40536;53.194;5.728;2022-10-31T04:14:15;218.02;;;206.57;;
54641;SDS011;40536;53.194;5.728;2022-10-31T04:16:41;214.70;;;202.80;;
54641;SDS011;40536;53.194;5.728;2022-10-31T04:19:09;248.10;;;234.95;;
54641;SDS011;40536;53.194;5.728;2022-10-31T04:21:36;248.00;;;234.68;;
54641;SDS011;40536;53.194;5.728;2022-10-31T04:24:01;255.85;;;242.40;;
54641;SDS011;40536;53.194;5.728;2022-10-31T04:26:27;250.95;;;237.52;;
54641;SDS011;40536;53.194;5.728;2022-10-31T04:28:53;192.85;;;182.43;;
54641;SDS011;40536;53.194;5.728;2022-10-31T04:31:18;188.73;;;178.45;;
54641;SDS011;40536;53.194;5.728;2022-10-31T04:33:44;241.80;;;228.73;;
54641;SDS011;40536;53.194;5.728;2022-10-31T04:36:10;253.55;;;239.95;;
54641;SDS011;40536;53.194;5.728;2022-10-31T04:38:35;261.35;;;246.95;;
54641;SDS011;40536;53.194;5.728;2022-10-31T04:41:01;217.88;;;206.35;;
54641;SDS011;40536;53.194;5.728;2022-10-31T04:43:27;287.48;;;272.38;;
54641;SDS011;40536;53.194;5.728;2022-10-31T04:45:52;280.08;;;264.90;;
54641;SDS011;40536;53.194;5.728;2022-10-31T04:48:18;261.67;;;247.55;;
54641;SDS011;40536;53.194;5.728;2022-10-31T04:50:43;218.93;;;206.65;;
54641;SDS011;40536;53.194;5.728;2022-10-31T04:53:09;85.32;;;79.57;;
54641;SDS011;40536;53.194;5.728;2022-10-31T04:55:35;54.85;;;50.47;;
54641;SDS011;40536;53.194;5.728;2022-10-31T04:58:01;45.28;;;41.70;;
54641;SDS011;40536;53.194;5.728;2022-10-31T05:00:27;45.17;;;41.38;;
54641;SDS011;40536;53.194;5.728;2022-10-31T05:02:54;48.15;;;44.05;;
54641;SDS011;40536;53.194;5.728;2022-10-31T05:05:23;49.47;;;45.42;;
54641;SDS011;40536;53.194;5.728;2022-10-31T05:07:50;52.72;;;48.80;;
54641;SDS011;40536;53.194;5.728;2022-10-31T05:10:18;65.03;;;60.80;;
54641;SDS011;40536;53.194;5.728;2022-10-31T05:12:53;75.78;;;70.78;;
54641;SDS011;40536;53.194;5.728;2022-10-31T05:15:25;68.93;;;64.22;;
54641;SDS011;40536;53.194;5.728;2022-10-31T05:17:52;66.32;;;61.72;;
54641;SDS011;40536;53.194;5.728;2022-10-31T05:20:19;69.88;;;65.43;;
54641;SDS011;40536;53.194;5.728;2022-10-31T05:22:47;53.28;;;49.50;;
54641;SDS011;40536;53.194;5.728;2022-10-31T05:25:15;61.03;;;57.13;;
54641;SDS011;40536;53.194;5.728;2022-10-31T05:27:41;52.60;;;48.58;;
54641;SDS011;40536;53.194;5.728;2022-10-31T05:30:09;57.28;;;53.33;;
54641;SDS011;40536;53.194;5.728;2022-10-31T05:32:39;53.00;;;49.20;;
54641;SDS011;40536;53.194;5.728;2022-10-31T05:35:07;59.10;;;55.08;;
54641;SDS011;40536;53.194;5.728;2022-10-31T05:37:35;31.33;;;28.05;;
54641;SDS011;40536;53.194;5.728;2022-10-31T05:40:02;56.53;;;52.65;;
54641;SDS011;40536;53.194;5.728;2022-10-31T05:42:28;75.10;;;70.18;;
54641;SDS011;40536;53.194;5.728;2022-10-31T05:44:54;80.20;;;75.38;;
54641;SDS011;40536;53.194;5.728;2022-10-31T05:47:20;94.30;;;88.70;;
54641;SDS011;40536;53.194;5.728;2022-10-31T05:49:45;63.65;;;59.53;;
54641;SDS011;40536;53.194;5.728;2022-10-31T05:52:11;48.95;;;44.97;;
54641;SDS011;40536;53.194;5.728;2022-10-31T05:54:37;71.25;;;66.35;;
54641;SDS011;40536;53.194;5.728;2022-10-31T05:57:02;40.13;;;36.67;;
54641;SDS011;40536;53.194;5.728;2022-10-31T05:59:28;35.42;;;31.92;;
54641;SDS011;40536;53.194;5.728;2022-10-31T06:01:53;41.83;;;32.28;;
54641;SDS011;40536;53.194;5.728;2022-10-31T06:04:19;64.72;;;58.75;;
54641;SDS011;40536;53.194;5.728;2022-10-31T06:06:45;81.35;;;76.10;;
54641;SDS011;40536;53.194;5.728;2022-10-31T06:09:10;75.55;;;70.78;;
54641;SDS011;40536;53.194;5.728;2022-10-31T06:11:37;108.13;;;101.35;;
54641;SDS011;40536;53.194;5.728;2022-10-31T06:14:03;80.55;;;74.88;;
54641;SDS011;40536;53.194;5.728;2022-10-31T06:16:29;116.07;;;109.50;;
54641;SDS011;40536;53.194;5.728;2022-10-31T06:18:55;108.40;;;102.00;;
54641;SDS011;40536;53.194;5.728;2022-10-31T06:21:20;106.40;;;99.68;;
54641;SDS011;40536;53.194;5.728;2022-10-31T06:23:46;137.90;;;130.25;;
54641;SDS011;40536;53.194;5.728;2022-10-31T06:26:12;83.30;;;77.93;;
54641;SDS011;40536;53.194;5.728;2022-10-31T06:28:37;93.38;;;87.50;;
54641;SDS011;40536;53.194;5.728;2022-10-31T06:31:03;115.88;;;108.90;;
54641;SDS011;40536;53.194;5.728;2022-10-31T06:33:29;95.55;;;89.93;;
54641;SDS011;40536;53.194;5.728;2022-10-31T06:35:54;181.32;;;171.45;;
54641;SDS011;40536;53.194;5.728;2022-10-31T06:38:20;155.85;;;147.10;;
54641;SDS011;40536;53.194;5.728;2022-10-31T06:40:45;175.65;;;165.80;;
54641;SDS011;40536;53.194;5.728;2022-10-31T06:43:11;199.73;;;188.65;;
54641;SDS011;40536;53.194;5.728;2022-10-31T06:45:37;255.57;;;242.13;;
54641;SDS011;40536;53.194;5.728;2022-10-31T06:48:03;128.00;;;120.90;;
54641;SDS011;40536;53.194;5.728;2022-10-31T06:50:29;104.45;;;97.80;;
54641;SDS011;40536;53.194;5.728;2022-10-31T06:52:55;103.28;;;96.82;;
54641;SDS011;40536;53.194;5.728;2022-10-31T06:55:22;109.22;;;102.32;;
54641;SDS011;40536;53.194;5.728;2022-10-31T06:57:56;128.73;;;120.63;;
54641;SDS011;40536;53.194;5.728;2022-10-31T07:00:24;136.90;;;128.95;;
54641;SDS011;40536;53.194;5.728;2022-10-31T07:02:55;182.05;;;172.27;;
54641;SDS011;40536;53.194;5.728;2022-10-31T07:05:22;273.08;;;259.52;;
54641;SDS011;40536;53.194;5.728;2022-10-31T07:07:51;256.40;;;242.82;;
54641;SDS011;40536;53.194;5.728;2022-10-31T07:10:18;152.15;;;143.32;;
54641;SDS011;40536;53.194;5.728;2022-10-31T07:12:44;186.35;;;176.57;;
54641;SDS011;40536;53.194;5.728;2022-10-31T07:15:10;163.07;;;153.95;;
54641;SDS011;40536;53.194;5.728;2022-10-31T07:17:35;145.60;;;136.98;;
54641;SDS011;40536;53.194;5.728;2022-10-31T07:20:01;160.10;;;150.75;;
54641;SDS011;40536;53.194;5.728;2022-10-31T07:22:33;137.88;;;129.70;;
54641;SDS011;40536;53.194;5.728;2022-10-31T07:25:00;162.35;;;153.10;;
54641;SDS011;40536;53.194;5.728;2022-10-31T07:27:26;217.05;;;205.60;;
54641;SDS011;40536;53.194;5.728;2022-10-31T07:29:51;141.95;;;133.90;;
54641;SDS011;40536;53.194;5.728;2022-10-31T07:32:17;140.63;;;132.45;;
54641;SDS011;40536;53.194;5.728;2022-10-31T07:34:43;138.95;;;131.23;;
54641;SDS011;40536;53.194;5.728;2022-10-31T07:37:08;197.68;;;186.93;;
54641;SDS011;40536;53.194;5.728;2022-10-31T07:39:34;220.40;;;208.90;;
54641;SDS011;40536;53.194;5.728;2022-10-31T07:41:59;223.85;;;212.05;;
54641;SDS011;40536;53.194;5.728;2022-10-31T07:44:25;291.90;;;276.92;;
54641;SDS011;40536;53.194;5.728;2022-10-31T07:46:51;314.20;;;298.13;;
54641;SDS011;40536;53.194;5.728;2022-10-31T07:49:16;227.35;;;215.00;;
54641;SDS011;40536;53.194;5.728;2022-10-31T07:51:42;219.65;;;207.50;;
54641;SDS011;40536;53.194;5.728;2022-10-31T07:54:07;177.27;;;166.98;;
54641;SDS011;40536;53.194;5.728;2022-10-31T07:56:33;220.07;;;208.07;;
54641;SDS011;40536;53.194;5.728;2022-10-31T07:58:59;414.65;;;392.42;;
54641;SDS011;40536;53.194;5.728;2022-10-31T08:01:24;339.60;;;321.70;;
54641;SDS011;40536;53.194;5.728;2022-10-31T08:03:50;323.25;;;305.90;;
54641;SDS011;40536;53.194;5.728;2022-10-31T08:06:15;311.88;;;294.95;;
54641;SDS011;40536;53.194;5.728;2022-10-31T08:08:41;348.90;;;330.00;;
54641;SDS011;40536;53.194;5.728;2022-10-31T08:11:07;349.92;;;331.10;;
54641;SDS011;40536;53.194;5.728;2022-10-31T08:13:33;259.83;;;246.30;;
54641;SDS011;40536;53.194;5.728;2022-10-31T08:15:58;299.35;;;283.85;;
54641;SDS011;40536;53.194;5.728;2022-10-31T08:18:28;325.13;;;308.48;;
54641;SDS011;40536;53.194;5.728;2022-10-31T08:20:54;320.85;;;303.30;;
54641;SDS011;40536;53.194;5.728;2022-10-31T08:23:20;323.38;;;306.40;;
54641;SDS011;40536;53.194;5.728;2022-10-31T08:25:45;343.67;;;326.13;;
54641;SDS011;40536;53.194;5.728;2022-10-31T08:28:12;281.73;;;267.48;;
54641;SDS011;40536;53.194;5.728;2022-10-31T08:30:39;177.43;;;167.35;;
54641;SDS011;40536;53.194;5.728;2022-10-31T08:33:10;313.77;;;297.55;;
54641;SDS011;40536;53.194;5.728;2022-10-31T08:35:37;330.00;;;312.83;;
54641;SDS011;40536;53.194;5.728;2022-10-31T08:38:03;376.55;;;357.05;;
54641;SDS011;40536;53.194;5.728;2022-10-31T08:40:29;308.85;;;292.73;;
54641;SDS011;40536;53.194;5.728;2022-10-31T08:43:00;330.75;;;313.98;;
54641;SDS011;40536;53.194;5.728;2022-10-31T08:45:29;272.60;;;258.48;;
54641;SDS011;40536;53.194;5.728;2022-10-31T08:47:59;247.15;;;234.13;;
54641;SDS011;40536;53.194;5.728;2022-10-31T08:50:30;294.95;;;279.98;;
54641;SDS011;40536;53.194;5.728;2022-10-31T08:53:01;323.05;;;306.35;;
54641;SDS011;40536;53.194;5.728;2022-10-31T08:55:38;289.23;;;274.05;;
54641;SDS011;40536;53.194;5.728;2022-10-31T08:58:05;321.00;;;304.08;;
54641;SDS011;40536;53.194;5.728;2022-10-31T09:00:33;155.40;;;146.32;;
54641;SDS011;40536;53.194;5.728;2022-10-31T09:03:03;214.18;;;202.95;;
54641;SDS011;40536;53.194;5.728;2022-10-31T09:05:31;221.38;;;209.00;;
54641;SDS011;40536;53.194;5.728;2022-10-31T09:07:58;288.38;;;273.75;;
54641;SDS011;40536;53.194;5.728;2022-10-31T09:10:25;131.07;;;123.38;;
54641;SDS011;40536;53.194;5.728;2022-10-31T09:12:55;135.93;;;128.15;;
54641;SDS011;40536;53.194;5.728;2022-10-31T09:15:21;133.80;;;126.20;;
54641;SDS011;40536;53.194;5.728;2022-10-31T09:17:47;144.60;;;136.48;;
54641;SDS011;40536;53.194;5.728;2022-10-31T09:20:13;108.82;;;102.63;;
54641;SDS011;40536;53.194;5.728;2022-10-31T09:22:39;111.93;;;105.68;;
54641;SDS011;40536;53.194;5.728;2022-10-31T09:25:04;112.80;;;106.32;;
54641;SDS011;40536;53.194;5.728;2022-10-31T09:27:30;94.15;;;87.57;;
54641;SDS011;40536;53.194;5.728;2022-10-31T09:29:56;65.80;;;61.22;;
54641;SDS011;40536;53.194;5.728;2022-10-31T09:32:21;62.22;;;57.95;;
54641;SDS011;40536;53.194;5.728;2022-10-31T09:34:47;57.38;;;53.80;;
54641;SDS011;40536;53.194;5.728;2022-10-31T09:37:13;60.50;;;56.42;;
54641;SDS011;40536;53.194;5.728;2022-10-31T09:39:38;62.78;;;58.50;;
54641;SDS011;40536;53.194;5.728;2022-10-31T09:42:07;61.22;;;57.15;;
54641;SDS011;40536;53.194;5.728;2022-10-31T09:50:02;52.55;;;48.90;;
54641;SDS011;40536;53.194;5.728;2022-10-31T09:52:58;47.42;;;44.15;;
54641;SDS011;40536;53.194;5.728;2022-10-31T09:55:41;54.25;;;50.25;;
54641;SDS011;40536;53.194;5.728;2022-10-31T09:58:26;41.75;;;38.83;;
54641;SDS011;40536;53.194;5.728;2022-10-31T10:00:55;44.22;;;41.00;;
54641;SDS011;40536;53.194;5.728;2022-10-31T10:08:46;42.15;;;39.05;;
54641;SDS011;40536;53.194;5.728;2022-10-31T10:25:20;48.33;;;44.70;;
54641;SDS011;40536;53.194;5.728;2022-10-31T10:28:13;52.17;;;48.42;;
54641;SDS011;40536;53.194;5.728;2022-10-31T10:30:46;43.30;;;40.10;;
54641;SDS011;40536;53.194;5.728;2022-10-31T10:33:19;51.03;;;47.28;;
54641;SDS011;40536;53.194;5.728;2022-10-31T10:35:54;67.90;;;62.40;;
54641;SDS011;40536;53.194;5.728;2022-10-31T10:40:53;39.15;;;35.88;;
54641;SDS011;40536;53.194;5.728;2022-10-31T10:43:21;37.97;;;34.83;;
54641;SDS011;40536;53.194;5.728;2022-10-31T11:00:46;24.63;;;22.48;;
54641;SDS011;40536;53.194;5.728;2022-10-31T11:03:16;36.13;;;33.17;;
54641;SDS011;40536;53.194;5.728;2022-10-31T11:13:33;34.63;;;31.75;;
54641;SDS011;40536;53.194;5.728;2022-10-31T11:16:07;34.50;;;31.83;;
54641;SDS011;40536;53.194;5.728;2022-10-31T11:18:45;23.30;;;21.23;;
54641;SDS011;40536;53.194;5.728;2022-10-31T11:21:22;24.63;;;22.50;;
54641;SDS011;40536;53.194;5.728;2022-10-31T11:24:01;26.40;;;23.98;;
54641;SDS011;40536;53.194;5.728;2022-10-31T11:26:36;30.25;;;28.05;;
54641;SDS011;40536;53.194;5.728;2022-10-31T11:29:03;16.48;;;15.07;;
54641;SDS011;40536;53.194;5.728;2022-10-31T11:31:30;23.08;;;21.23;;
54641;SDS011;40536;53.194;5.728;2022-10-31T11:33:59;26.73;;;24.55;;
54641;SDS011;40536;53.194;5.728;2022-10-31T11:36:29;30.98;;;28.65;;
54641;SDS011;40536;53.194;5.728;2022-10-31T11:38:57;21.73;;;19.42;;
54641;SDS011;40536;53.194;5.728;2022-10-31T11:41:31;23.30;;;21.50;;
54641;SDS011;40536;53.194;5.728;2022-10-31T11:44:00;27.63;;;25.38;;
54641;SDS011;40536;53.194;5.728;2022-10-31T11:49:02;24.00;;;22.20;;
54641;SDS011;40536;53.194;5.728;2022-10-31T11:51:31;39.45;;;36.33;;
54641;SDS011;40536;53.194;5.728;2022-10-31T11:53:59;28.77;;;26.25;;
54641;SDS011;40536;53.194;5.728;2022-10-31T11:56:28;41.97;;;38.92;;
54641;SDS011;40536;53.194;5.728;2022-10-31T11:59:04;32.80;;;29.98;;
54641;SDS011;40536;53.194;5.728;2022-10-31T12:01:39;30.95;;;28.70;;
54641;SDS011;40536;53.194;5.728;2022-10-31T12:04:11;28.00;;;25.58;;
54641;SDS011;40536;53.194;5.728;2022-10-31T12:06:41;35.15;;;32.08;;
54641;SDS011;40536;53.194;5.728;2022-10-31T12:11:52;22.85;;;20.63;;
54641;SDS011;40536;53.194;5.728;2022-10-31T12:19:44;21.60;;;19.27;;
54641;SDS011;40536;53.194;5.728;2022-10-31T12:30:49;26.08;;;23.40;;
54641;SDS011;40536;53.194;5.728;2022-10-31T12:36:21;31.95;;;29.02;;
54641;SDS011;40536;53.194;5.728;2022-10-31T12:44:29;36.35;;;32.92;;
54641;SDS011;40536;53.194;5.728;2022-10-31T12:47:20;50.92;;;46.83;;
54641;SDS011;40536;53.194;5.728;2022-10-31T12:55:34;40.35;;;36.88;;
54641;SDS011;40536;53.194;5.728;2022-10-31T12:58:14;33.28;;;29.98;;
54641;SDS011;40536;53.194;5.728;2022-10-31T13:03:48;29.83;;;26.85;;
54641;SDS011;40536;53.194;5.728;2022-10-31T13:06:24;35.30;;;32.05;;
54641;SDS011;40536;53.194;5.728;2022-10-31T13:11:30;28.00;;;25.42;;
54641;SDS011;40536;53.194;5.728;2022-10-31T13:19:25;23.80;;;21.50;;
54641;SDS011;40536;53.194;5.728;2022-10-31T13:24:27;21.55;;;17.58;;
54641;SDS011;40536;53.194;5.728;2022-10-31T13:27:13;19.77;;;17.13;;
54641;SDS011;40536;53.194;5.728;2022-10-31T13:32:37;15.93;;;12.63;;
54641;SDS011;40536;53.194;5.728;2022-10-31T13:35:24;14.93;;;12.98;;
54641;SDS011;40536;53.194;5.728;2022-10-31T13:38:00;14.98;;;13.48;;
54641;SDS011;40536;53.194;5.728;2022-10-31T13:40:44;17.42;;;15.60;;
54641;SDS011;40536;53.194;5.728;2022-10-31T13:45:56;19.15;;;17.55;;
54641;SDS011;40536;53.194;5.728;2022-10-31T13:50:57;16.83;;;15.35;;
54641;SDS011;40536;53.194;5.728;2022-10-31T13:53:36;23.08;;;20.88;;
54641;SDS011;40536;53.194;5.728;2022-10-31T13:58:34;20.10;;;18.20;;
54641;SDS011;40536;53.194;5.728;2022-10-31T14:03:35;15.40;;;13.93;;
54641;SDS011;40536;53.194;5.728;2022-10-31T14:06:03;26.80;;;24.48;;
54641;SDS011;40536;53.194;5.728;2022-10-31T14:08:32;31.15;;;28.65;;
54641;SDS011;40536;53.194;5.728;2022-10-31T14:11:00;16.90;;;15.50;;
54641;SDS011;40536;53.194;5.728;2022-10-31T14:13:34;18.23;;;16.23;;
54641;SDS011;40536;53.194;5.728;2022-10-31T14:16:20;24.48;;;22.00;;
54641;SDS011;40536;53.194;5.728;2022-10-31T14:21:31;15.55;;;12.63;;
54641;SDS011;40536;53.194;5.728;2022-10-31T14:29:49;16.05;;;13.18;;
54641;SDS011;40536;53.194;5.728;2022-10-31T14:32:19;15.05;;;12.40;;
54641;SDS011;40536;53.194;5.728;2022-10-31T14:34:55;15.90;;;14.40;;
54641;SDS011;40536;53.194;5.728;2022-10-31T14:51:43;32.28;;;29.85;;
54641;SDS011;40536;53.194;5.728;2022-10-31T14:54:14;46.67;;;43.80;;
54641;SDS011;40536;53.194;5.728;2022-10-31T14:56:55;34.33;;;32.28;;
54641;SDS011;40536;53.194;5.728;2022-10-31T14:59:27;27.02;;;25.08;;
54641;SDS011;40536;53.194;5.728;2022-10-31T15:02:00;26.95;;;25.02;;
54641;SDS011;40536;53.194;5.728;2022-10-31T15:04:34;28.40;;;26.42;;
54641;SDS011;40536;53.194;5.728;2022-10-31T15:07:09;30.20;;;27.65;;
54641;SDS011;40536;53.194;5.728;2022-10-31T15:09:36;27.33;;;25.05;;
54641;SDS011;40536;53.194;5.728;2022-10-31T15:12:28;26.73;;;24.73;;
54641;SDS011;40536;53.194;5.728;2022-10-31T15:15:09;24.13;;;22.08;;
54641;SDS011;40536;53.194;5.728;2022-10-31T15:17:48;20.85;;;19.17;;
54641;SDS011;40536;53.194;5.728;2022-10-31T15:20:20;21.33;;;19.58;;
54641;SDS011;40536;53.194;5.728;2022-10-31T15:22:49;22.45;;;20.20;;
54641;SDS011;40536;53.194;5.728;2022-10-31T15:25:19;17.65;;;16.27;;
54641;SDS011;40536;53.194;5.728;2022-10-31T15:27:46;20.63;;;18.67;;
54641;SDS011;40536;53.194;5.728;2022-10-31T15:30:20;18.27;;;16.23;;
54641;SDS011;40536;53.194;5.728;2022-10-31T15:32:50;19.20;;;17.70;;
54641;SDS011;40536;53.194;5.728;2022-10-31T15:35:28;20.08;;;18.60;;
54641;SDS011;40536;53.194;5.728;2022-10-31T15:37:56;31.50;;;29.08;;
54641;SDS011;40536;53.194;5.728;2022-10-31T15:40:23;26.05;;;24.23;;
54641;SDS011;40536;53.194;5.728;2022-10-31T15:42:55;27.80;;;25.92;;
54641;SDS011;40536;53.194;5.728;2022-10-31T15:45:27;30.27;;;27.90;;
54641;SDS011;40536;53.194;5.728;2022-10-31T15:47:54;33.58;;;31.27;;
54641;SDS011;40536;53.194;5.728;2022-10-31T15:50:25;29.42;;;27.23;;
54641;SDS011;40536;53.194;5.728;2022-10-31T15:53:20;27.55;;;25.70;;
54641;SDS011;40536;53.194;5.728;2022-10-31T15:56:18;27.63;;;25.63;;
54641;SDS011;40536;53.194;5.728;2022-10-31T15:58:46;27.48;;;25.60;;
54641;SDS011;40536;53.194;5.728;2022-10-31T16:01:33;26.38;;;24.45;;
54641;SDS011;40536;53.194;5.728;2022-10-31T16:03:59;40.00;;;37.20;;
54641;SDS011;40536;53.194;5.728;2022-10-31T16:06:27;27.50;;;25.23;;
54641;SDS011;40536;53.194;5.728;2022-10-31T16:08:53;28.40;;;26.55;;
54641;SDS011;40536;53.194;5.728;2022-10-31T16:14:00;36.15;;;33.58;;
54641;SDS011;40536;53.194;5.728;2022-10-31T16:16:40;32.22;;;29.85;;
54641;SDS011;40536;53.194;5.728;2022-10-31T16:19:36;64.32;;;60.22;;
54641;SDS011;40536;53.194;5.728;2022-10-31T16:22:04;28.50;;;26.30;;
54641;SDS011;40536;53.194;5.728;2022-10-31T16:24:33;20.92;;;19.08;;
54641;SDS011;40536;53.194;5.728;2022-10-31T16:27:06;20.20;;;18.67;;
54641;SDS011;40536;53.194;5.728;2022-10-31T16:29:42;21.17;;;19.48;;
54641;SDS011;40536;53.194;5.728;2022-10-31T16:37:39;24.00;;;22.17;;
54641;SDS011;40536;53.194;5.728;2022-10-31T16:40:05;19.90;;;18.13;;
54641;SDS011;40536;53.194;5.728;2022-10-31T16:42:32;28.30;;;25.95;;
54641;SDS011;40536;53.194;5.728;2022-10-31T16:44:58;20.55;;;18.75;;
54641;SDS011;40536;53.194;5.728;2022-10-31T16:47:24;33.53;;;30.83;;
54641;SDS011;40536;53.194;5.728;2022-10-31T16:49:50;39.88;;;37.22;;
54641;SDS011;40536;53.194;5.728;2022-10-31T16:52:16;28.20;;;25.80;;
54641;SDS011;40536;53.194;5.728;2022-10-31T16:54:42;19.42;;;17.80;;
54641;SDS011;40536;53.194;5.728;2022-10-31T16:57:13;19.70;;;17.65;;
54641;SDS011;40536;53.194;5.728;2022-10-31T16:59:40;18.48;;;15.95;;
54641;SDS011;40536;53.194;5.728;2022-10-31T17:02:09;23.20;;;21.40;;
54641;SDS011;40536;53.194;5.728;2022-10-31T17:04:38;24.27;;;22.10;;
54641;SDS011;40536;53.194;5.728;2022-10-31T17:07:04;25.73;;;23.33;;
54641;SDS011;40536;53.194;5.728;2022-10-31T17:09:29;24.30;;;21.25;;
54641;SDS011;40536;53.194;5.728;2022-10-31T17:11:55;15.02;;;13.35;;
54641;SDS011;40536;53.194;5.728;2022-10-31T17:14:21;18.67;;;16.77;;